sensor_id;sensor_type;location;lat;lon;timestamp;temperature;humidity
14850;DHT22;7517;48.400;11.770;2024-02-23T00:02:36;13.90;82.50
14850;DHT22;7517;48.400;11.770;2024-02-23T00:05:25;13.90;82.40
14850;DHT22;7517;48.400;11.770;2024-02-23T00:08:11;13.80;82.10
14850;DHT22;7517;48.400;11.770;2024-02-23T00:10:58;13.80;82.00
14850;DHT22;7517;48.400;11.770;2024-02-23T00:13:44;13.70;81.80
14850;DHT22;7517;48.400;11.770;2024-02-23T00:16:37;13.70;81.60
14850;DHT22;7517;48.400;11.770;2024-02-23T00:19:24;13.70;81.10
14850;DHT22;7517;48.400;11.770;2024-02-23T00:22:10;13.60;81.30
14850;DHT22;7517;48.400;11.770;2024-02-23T00:24:56;13.60;81.10
14850;DHT22;7517;48.400;11.770;2024-02-23T00:27:42;13.50;80.90
14850;DHT22;7517;48.400;11.770;2024-02-23T00:30:28;13.50;80.70
14850;DHT22;7517;48.400;11.770;2024-02-23T00:33:18;13.40;80.50
14850;DHT22;7517;48.400;11.770;2024-02-23T00:36:05;13.40;80.40
14850;DHT22;7517;48.400;11.770;2024-02-23T00:38:53;13.30;80.50
14850;DHT22;7517;48.400;11.770;2024-02-23T00:41:39;13.20;80.50
14850;DHT22;7517;48.400;11.770;2024-02-23T00:44:25;13.20;80.70
14850;DHT22;7517;48.400;11.770;2024-02-23T00:47:11;13.20;80.80
14850;DHT22;7517;48.400;11.770;2024-02-23T00:49:58;13.10;80.70
14850;DHT22;7517;48.400;11.770;2024-02-23T00:52:44;13.10;81.40
14850;DHT22;7517;48.400;11.770;2024-02-23T00:55:31;13.00;80.50
14850;DHT22;7517;48.400;11.770;2024-02-23T00:58:17;13.00;80.30
14850;DHT22;7517;48.400;11.770;2024-02-23T01:01:03;13.00;80.20
14850;DHT22;7517;48.400;11.770;2024-02-23T01:03:49;12.90;80.10
14850;DHT22;7517;48.400;11.770;2024-02-23T01:06:42;12.90;80.00
14850;DHT22;7517;48.400;11.770;2024-02-23T01:09:28;12.90;79.80
14850;DHT22;7517;48.400;11.770;2024-02-23T01:12:14;12.80;80.00
14850;DHT22;7517;48.400;11.770;2024-02-23T01:15:00;12.80;80.10
14850;DHT22;7517;48.400;11.770;2024-02-23T01:17:46;12.80;81.00
14850;DHT22;7517;48.400;11.770;2024-02-23T01:20:34;12.70;80.20
14850;DHT22;7517;48.400;11.770;2024-02-23T01:23:21;12.70;80.20
14850;DHT22;7517;48.400;11.770;2024-02-23T01:26:07;12.70;79.70
14850;DHT22;7517;48.400;11.770;2024-02-23T01:28:54;12.60;79.50
14850;DHT22;7517;48.400;11.770;2024-02-23T01:31:42;12.60;80.50
14850;DHT22;7517;48.400;11.770;2024-02-23T01:34:28;12.60;79.50
14850;DHT22;7517;48.400;11.770;2024-02-23T01:37:14;12.60;79.40
14850;DHT22;7517;48.400;11.770;2024-02-23T01:40:02;12.50;79.20
14850;DHT22;7517;48.400;11.770;2024-02-23T01:42:48;12.50;79.10
14850;DHT22;7517;48.400;11.770;2024-02-23T01:45:34;12.50;79.10
14850;DHT22;7517;48.400;11.770;2024-02-23T01:48:21;12.50;79.10
14850;DHT22;7517;48.400;11.770;2024-02-23T01:51:08;12.50;79.10
14850;DHT22;7517;48.400;11.770;2024-02-23T01:53:55;12.40;78.60
14850;DHT22;7517;48.400;11.770;2024-02-23T01:56:40;12.40;78.60
14850;DHT22;7517;48.400;11.770;2024-02-23T01:59:27;12.40;79.20
14850;DHT22;7517;48.400;11.770;2024-02-23T02:02:13;12.40;78.70
14850;DHT22;7517;48.400;11.770;2024-02-23T02:05:01;12.40;78.40
14850;DHT22;7517;48.400;11.770;2024-02-23T02:07:49;12.30;78.00
14850;DHT22;7517;48.400;11.770;2024-02-23T02:10:38;12.30;78.00
14850;DHT22;7517;48.400;11.770;2024-02-23T02:13:27;12.30;78.30
14850;DHT22;7517;48.400;11.770;2024-02-23T02:16:14;12.30;77.90
14850;DHT22;7517;48.400;11.770;2024-02-23T02:19:00;12.30;78.20
14850;DHT22;7517;48.400;11.770;2024-02-23T02:21:47;12.20;78.30
14850;DHT22;7517;48.400;11.770;2024-02-23T02:24:35;12.20;78.20
14850;DHT22;7517;48.400;11.770;2024-02-23T02:27:25;12.20;78.00
14850;DHT22;7517;48.400;11.770;2024-02-23T02:30:13;12.20;78.10
14850;DHT22;7517;48.400;11.770;2024-02-23T02:32:59;12.20;78.10
14850;DHT22;7517;48.400;11.770;2024-02-23T02:35:45;12.20;78.20
14850;DHT22;7517;48.400;11.770;2024-02-23T02:38:30;12.20;78.40
14850;DHT22;7517;48.400;11.770;2024-02-23T02:41:18;12.20;78.40
14850;DHT22;7517;48.400;11.770;2024-02-23T02:44:05;12.20;78.40
14850;DHT22;7517;48.400;11.770;2024-02-23T02:46:55;12.20;78.60
14850;DHT22;7517;48.400;11.770;2024-02-23T02:49:43;12.10;78.30
14850;DHT22;7517;48.400;11.770;2024-02-23T02:52:28;12.20;78.70
14850;DHT22;7517;48.400;11.770;2024-02-23T02:55:15;12.10;78.90
14850;DHT22;7517;48.400;11.770;2024-02-23T02:58:01;12.10;79.00
14850;DHT22;7517;48.400;11.770;2024-02-23T03:00:47;12.10;80.00
14850;DHT22;7517;48.400;11.770;2024-02-23T03:03:35;12.10;79.00
14850;DHT22;7517;48.400;11.770;2024-02-23T03:06:21;12.10;78.40
14850;DHT22;7517;48.400;11.770;2024-02-23T03:09:07;12.00;78.40
14850;DHT22;7517;48.400;11.770;2024-02-23T03:11:54;12.00;78.30
14850;DHT22;7517;48.400;11.770;2024-02-23T03:14:41;11.90;78.30
14850;DHT22;7517;48.400;11.770;2024-02-23T03:17:27;11.80;77.90
14850;DHT22;7517;48.400;11.770;2024-02-23T03:20:16;11.70;78.00
14850;DHT22;7517;48.400;11.770;2024-02-23T03:23:01;11.70;77.80
14850;DHT22;7517;48.400;11.770;2024-02-23T03:25:48;11.60;77.70
14850;DHT22;7517;48.400;11.770;2024-02-23T03:28:34;11.50;77.80
14850;DHT22;7517;48.400;11.770;2024-02-23T03:31:20;11.40;77.90
14850;DHT22;7517;48.400;11.770;2024-02-23T03:34:06;11.40;78.00
14850;DHT22;7517;48.400;11.770;2024-02-23T03:36:55;11.30;78.20
14850;DHT22;7517;48.400;11.770;2024-02-23T03:39:41;11.20;78.00
14850;DHT22;7517;48.400;11.770;2024-02-23T03:42:28;11.20;78.40
14850;DHT22;7517;48.400;11.770;2024-02-23T03:45:14;11.10;78.60
14850;DHT22;7517;48.400;11.770;2024-02-23T03:48:03;11.00;78.80
14850;DHT22;7517;48.400;11.770;2024-02-23T03:50:49;11.00;78.70
14850;DHT22;7517;48.400;11.770;2024-02-23T03:53:40;10.90;78.80
14850;DHT22;7517;48.400;11.770;2024-02-23T03:56:26;10.90;78.90
14850;DHT22;7517;48.400;11.770;2024-02-23T03:59:12;10.80;78.80
14850;DHT22;7517;48.400;11.770;2024-02-23T04:02:01;10.80;79.10
14850;DHT22;7517;48.400;11.770;2024-02-23T04:04:48;10.80;79.20
14850;DHT22;7517;48.400;11.770;2024-02-23T04:07:34;10.70;79.10
14850;DHT22;7517;48.400;11.770;2024-02-23T04:10:22;10.70;79.40
14850;DHT22;7517;48.400;11.770;2024-02-23T04:13:08;10.70;79.60
14850;DHT22;7517;48.400;11.770;2024-02-23T04:15:57;10.70;79.60
14850;DHT22;7517;48.400;11.770;2024-02-23T04:18:46;10.70;80.40
14850;DHT22;7517;48.400;11.770;2024-02-23T04:21:32;10.70;79.60
14850;DHT22;7517;48.400;11.770;2024-02-23T04:24:20;10.60;79.40
14850;DHT22;7517;48.400;11.770;2024-02-23T04:27:07;10.60;79.40
14850;DHT22;7517;48.400;11.770;2024-02-23T04:29:54;10.60;79.40
14850;DHT22;7517;48.400;11.770;2024-02-23T04:32:41;10.60;79.60
14850;DHT22;7517;48.400;11.770;2024-02-23T04:35:28;10.60;79.90
14850;DHT22;7517;48.400;11.770;2024-02-23T04:38:14;10.60;79.90
14850;DHT22;7517;48.400;11.770;2024-02-23T04:41:03;10.60;80.00
14850;DHT22;7517;48.400;11.770;2024-02-23T04:43:51;10.70;80.20
14850;DHT22;7517;48.400;11.770;2024-02-23T04:46:42;10.70;80.20
14850;DHT22;7517;48.400;11.770;2024-02-23T04:49:28;10.70;80.30
14850;DHT22;7517;48.400;11.770;2024-02-23T04:52:15;10.70;80.50
14850;DHT22;7517;48.400;11.770;2024-02-23T04:55:01;10.70;80.30
14850;DHT22;7517;48.400;11.770;2024-02-23T04:57:49;10.70;80.20
14850;DHT22;7517;48.400;11.770;2024-02-23T05:00:38;10.70;80.20
14850;DHT22;7517;48.400;11.770;2024-02-23T05:03:24;10.70;80.30
14850;DHT22;7517;48.400;11.770;2024-02-23T05:06:11;10.70;80.50
14850;DHT22;7517;48.400;11.770;2024-02-23T05:08:58;10.70;80.60
14850;DHT22;7517;48.400;11.770;2024-02-23T05:11:46;10.80;80.40
14850;DHT22;7517;48.400;11.770;2024-02-23T05:14:33;10.80;80.30
14850;DHT22;7517;48.400;11.770;2024-02-23T05:17:21;10.80;80.30
14850;DHT22;7517;48.400;11.770;2024-02-23T05:20:08;10.80;80.30
14850;DHT22;7517;48.400;11.770;2024-02-23T05:22:55;10.80;80.40
14850;DHT22;7517;48.400;11.770;2024-02-23T05:25:42;10.80;80.50
14850;DHT22;7517;48.400;11.770;2024-02-23T05:28:28;10.80;80.40
14850;DHT22;7517;48.400;11.770;2024-02-23T05:31:14;10.80;80.10
14850;DHT22;7517;48.400;11.770;2024-02-23T05:34:01;10.80;79.90
14850;DHT22;7517;48.400;11.770;2024-02-23T05:36:47;10.80;79.80
14850;DHT22;7517;48.400;11.770;2024-02-23T05:39:35;10.80;80.20
14850;DHT22;7517;48.400;11.770;2024-02-23T05:42:23;10.80;80.30
14850;DHT22;7517;48.400;11.770;2024-02-23T05:45:09;10.90;80.50
14850;DHT22;7517;48.400;11.770;2024-02-23T05:47:55;10.90;80.50
14850;DHT22;7517;48.400;11.770;2024-02-23T05:50:43;10.80;80.50
14850;DHT22;7517;48.400;11.770;2024-02-23T05:53:29;10.90;80.60
14850;DHT22;7517;48.400;11.770;2024-02-23T05:56:17;10.90;80.80
14850;DHT22;7517;48.400;11.770;2024-02-23T05:59:03;10.90;80.80
14850;DHT22;7517;48.400;11.770;2024-02-23T06:01:50;10.90;80.80
14850;DHT22;7517;48.400;11.770;2024-02-23T06:04:40;11.00;80.70
14850;DHT22;7517;48.400;11.770;2024-02-23T06:07:29;11.00;80.60
14850;DHT22;7517;48.400;11.770;2024-02-23T06:10:16;11.00;80.30
14850;DHT22;7517;48.400;11.770;2024-02-23T06:13:02;11.10;80.30
14850;DHT22;7517;48.400;11.770;2024-02-23T06:15:49;11.10;80.30
14850;DHT22;7517;48.400;11.770;2024-02-23T06:18:35;11.10;80.40
14850;DHT22;7517;48.400;11.770;2024-02-23T06:21:22;11.10;80.30
14850;DHT22;7517;48.400;11.770;2024-02-23T06:24:10;11.10;80.20
14850;DHT22;7517;48.400;11.770;2024-02-23T06:26:56;11.10;80.00
14850;DHT22;7517;48.400;11.770;2024-02-23T06:29:43;11.10;80.90
14850;DHT22;7517;48.400;11.770;2024-02-23T06:32:30;11.10;80.20
14850;DHT22;7517;48.400;11.770;2024-02-23T06:35:16;11.20;80.10
14850;DHT22;7517;48.400;11.770;2024-02-23T06:38:02;11.10;79.80
14850;DHT22;7517;48.400;11.770;2024-02-23T06:40:52;11.10;79.70
14850;DHT22;7517;48.400;11.770;2024-02-23T06:43:39;11.20;79.80
14850;DHT22;7517;48.400;11.770;2024-02-23T06:46:26;11.20;80.70
14850;DHT22;7517;48.400;11.770;2024-02-23T06:49:12;11.20;80.10
14850;DHT22;7517;48.400;11.770;2024-02-23T06:51:58;11.20;80.20
14850;DHT22;7517;48.400;11.770;2024-02-23T06:54:44;11.20;80.20
14850;DHT22;7517;48.400;11.770;2024-02-23T06:57:31;11.20;80.20
14850;DHT22;7517;48.400;11.770;2024-02-23T07:00:17;11.20;80.20
14850;DHT22;7517;48.400;11.770;2024-02-23T07:03:04;11.20;80.20
14850;DHT22;7517;48.400;11.770;2024-02-23T07:05:50;11.20;79.90
14850;DHT22;7517;48.400;11.770;2024-02-23T07:08:36;11.20;79.70
14850;DHT22;7517;48.400;11.770;2024-02-23T07:11:22;11.20;79.80
14850;DHT22;7517;48.400;11.770;2024-02-23T07:14:12;11.30;80.00
14850;DHT22;7517;48.400;11.770;2024-02-23T07:16:58;11.30;80.00
14850;DHT22;7517;48.400;11.770;2024-02-23T07:19:45;11.30;80.10
14850;DHT22;7517;48.400;11.770;2024-02-23T07:22:34;11.40;80.20
14850;DHT22;7517;48.400;11.770;2024-02-23T07:25:21;11.30;79.90
14850;DHT22;7517;48.400;11.770;2024-02-23T07:28:04;11.40;80.20
14850;DHT22;7517;48.400;11.770;2024-02-23T07:30:51;11.40;80.20
14850;DHT22;7517;48.400;11.770;2024-02-23T07:33:38;11.40;80.20
14850;DHT22;7517;48.400;11.770;2024-02-23T07:36:24;11.40;80.30
14850;DHT22;7517;48.400;11.770;2024-02-23T07:39:10;11.50;80.30
14850;DHT22;7517;48.400;11.770;2024-02-23T07:41:58;11.50;80.40
14850;DHT22;7517;48.400;11.770;2024-02-23T07:44:44;11.50;80.20
14850;DHT22;7517;48.400;11.770;2024-02-23T07:47:32;11.50;80.20
14850;DHT22;7517;48.400;11.770;2024-02-23T07:50:19;11.50;80.00
14850;DHT22;7517;48.400;11.770;2024-02-23T07:53:05;11.60;79.70
14850;DHT22;7517;48.400;11.770;2024-02-23T07:55:54;11.60;79.40
14850;DHT22;7517;48.400;11.770;2024-02-23T07:58:43;11.60;79.60
14850;DHT22;7517;48.400;11.770;2024-02-23T08:01:29;11.60;79.60
14850;DHT22;7517;48.400;11.770;2024-02-23T08:04:19;11.60;79.20
14850;DHT22;7517;48.400;11.770;2024-02-23T08:07:07;11.60;78.80
14850;DHT22;7517;48.400;11.770;2024-02-23T08:09:52;11.70;79.40
14850;DHT22;7517;48.400;11.770;2024-02-23T08:12:39;11.70;79.70
14850;DHT22;7517;48.400;11.770;2024-02-23T08:15:27;11.70;79.70
14850;DHT22;7517;48.400;11.770;2024-02-23T08:18:15;11.70;79.90
14850;DHT22;7517;48.400;11.770;2024-02-23T08:21:02;11.80;80.50
14850;DHT22;7517;48.400;11.770;2024-02-23T08:23:50;11.80;79.60
14850;DHT22;7517;48.400;11.770;2024-02-23T08:26:36;11.90;79.80
14850;DHT22;7517;48.400;11.770;2024-02-23T08:29:25;11.90;79.60
14850;DHT22;7517;48.400;11.770;2024-02-23T08:32:12;11.90;79.40
14850;DHT22;7517;48.400;11.770;2024-02-23T08:34:58;11.90;79.80
14850;DHT22;7517;48.400;11.770;2024-02-23T08:37:46;12.00;80.00
14850;DHT22;7517;48.400;11.770;2024-02-23T08:40:32;12.00;79.70
14850;DHT22;7517;48.400;11.770;2024-02-23T08:43:24;12.10;79.60
14850;DHT22;7517;48.400;11.770;2024-02-23T08:46:10;12.10;79.70
14850;DHT22;7517;48.400;11.770;2024-02-23T08:48:57;12.20;79.70
14850;DHT22;7517;48.400;11.770;2024-02-23T08:51:44;12.20;79.00
14850;DHT22;7517;48.400;11.770;2024-02-23T08:54:31;12.20;79.00
14850;DHT22;7517;48.400;11.770;2024-02-23T08:57:17;12.30;79.10
14850;DHT22;7517;48.400;11.770;2024-02-23T09:00:04;12.30;79.30
14850;DHT22;7517;48.400;11.770;2024-02-23T09:02:51;12.40;79.20
14850;DHT22;7517;48.400;11.770;2024-02-23T09:05:37;12.40;78.90
14850;DHT22;7517;48.400;11.770;2024-02-23T09:08:23;12.50;79.20
14850;DHT22;7517;48.400;11.770;2024-02-23T09:11:11;12.50;79.10
14850;DHT22;7517;48.400;11.770;2024-02-23T09:13:59;12.50;78.50
14850;DHT22;7517;48.400;11.770;2024-02-23T09:16:45;12.50;78.50
14850;DHT22;7517;48.400;11.770;2024-02-23T09:19:34;12.60;78.50
14850;DHT22;7517;48.400;11.770;2024-02-23T09:22:20;12.60;78.10
14850;DHT22;7517;48.400;11.770;2024-02-23T09:25:08;12.60;77.70
14850;DHT22;7517;48.400;11.770;2024-02-23T09:27:58;12.60;78.10
14850;DHT22;7517;48.400;11.770;2024-02-23T09:30:44;12.60;77.60
14850;DHT22;7517;48.400;11.770;2024-02-23T09:33:30;12.60;77.50
14850;DHT22;7517;48.400;11.770;2024-02-23T09:36:16;12.50;77.30
14850;DHT22;7517;48.400;11.770;2024-02-23T09:39:03;12.50;77.10
14850;DHT22;7517;48.400;11.770;2024-02-23T09:41:50;12.50;76.60
14850;DHT22;7517;48.400;11.770;2024-02-23T09:44:38;12.50;76.60
14850;DHT22;7517;48.400;11.770;2024-02-23T09:47:27;12.50;76.50
14850;DHT22;7517;48.400;11.770;2024-02-23T09:50:14;12.50;76.40
14850;DHT22;7517;48.400;11.770;2024-02-23T09:53:04;12.50;76.50
14850;DHT22;7517;48.400;11.770;2024-02-23T09:55:56;12.50;76.70
14850;DHT22;7517;48.400;11.770;2024-02-23T09:58:46;12.40;76.10
14850;DHT22;7517;48.400;11.770;2024-02-23T10:01:36;12.50;76.00
14850;DHT22;7517;48.400;11.770;2024-02-23T10:04:19;12.50;76.50
14850;DHT22;7517;48.400;11.770;2024-02-23T10:07:07;12.50;76.50
14850;DHT22;7517;48.400;11.770;2024-02-23T10:09:53;12.40;76.20
14850;DHT22;7517;48.400;11.770;2024-02-23T10:12:41;12.40;76.10
14850;DHT22;7517;48.400;11.770;2024-02-23T10:15:29;12.50;76.80
14850;DHT22;7517;48.400;11.770;2024-02-23T10:18:17;12.50;76.80
14850;DHT22;7517;48.400;11.770;2024-02-23T10:21:04;12.50;76.60
14850;DHT22;7517;48.400;11.770;2024-02-23T10:23:50;12.50;76.10
14850;DHT22;7517;48.400;11.770;2024-02-23T10:26:37;12.50;75.80
14850;DHT22;7517;48.400;11.770;2024-02-23T10:29:23;12.50;75.80
14850;DHT22;7517;48.400;11.770;2024-02-23T10:32:14;12.50;75.70
14850;DHT22;7517;48.400;11.770;2024-02-23T10:35:03;12.50;75.10
14850;DHT22;7517;48.400;11.770;2024-02-23T10:37:56;12.50;75.20
14850;DHT22;7517;48.400;11.770;2024-02-23T10:40:43;12.50;75.50
14850;DHT22;7517;48.400;11.770;2024-02-23T10:43:35;12.50;75.40
14850;DHT22;7517;48.400;11.770;2024-02-23T10:46:28;12.60;75.50
14850;DHT22;7517;48.400;11.770;2024-02-23T10:49:16;12.60;75.80
14850;DHT22;7517;48.400;11.770;2024-02-23T10:52:09;12.60;75.90
14850;DHT22;7517;48.400;11.770;2024-02-23T10:55:00;12.60;75.20
14850;DHT22;7517;48.400;11.770;2024-02-23T10:57:49;12.60;75.40
14850;DHT22;7517;48.400;11.770;2024-02-23T11:00:38;12.60;75.70
14850;DHT22;7517;48.400;11.770;2024-02-23T11:03:32;12.60;75.70
14850;DHT22;7517;48.400;11.770;2024-02-23T11:06:27;12.70;75.70
14850;DHT22;7517;48.400;11.770;2024-02-23T11:09:21;12.70;75.10
14850;DHT22;7517;48.400;11.770;2024-02-23T11:12:09;12.70;75.40
14850;DHT22;7517;48.400;11.770;2024-02-23T11:14:57;12.80;75.40
14850;DHT22;7517;48.400;11.770;2024-02-23T11:17:50;12.80;75.20
14850;DHT22;7517;48.400;11.770;2024-02-23T11:20:37;12.80;75.30
14850;DHT22;7517;48.400;11.770;2024-02-23T11:23:24;12.80;75.30
14850;DHT22;7517;48.400;11.770;2024-02-23T11:26:12;12.80;74.80
14850;DHT22;7517;48.400;11.770;2024-02-23T11:28:59;12.80;74.20
14850;DHT22;7517;48.400;11.770;2024-02-23T11:31:55;12.80;74.10
14850;DHT22;7517;48.400;11.770;2024-02-23T11:34:55;12.80;74.00
14850;DHT22;7517;48.400;11.770;2024-02-23T11:37:49;12.80;73.00
14850;DHT22;7517;48.400;11.770;2024-02-23T11:40:41;12.80;73.40
14850;DHT22;7517;48.400;11.770;2024-02-23T11:43:29;12.80;74.10
14850;DHT22;7517;48.400;11.770;2024-02-23T11:46:15;12.70;73.80
14850;DHT22;7517;48.400;11.770;2024-02-23T11:49:01;12.70;73.90
14850;DHT22;7517;48.400;11.770;2024-02-23T11:51:47;12.70;73.80
14850;DHT22;7517;48.400;11.770;2024-02-23T11:54:33;12.70;73.50
14850;DHT22;7517;48.400;11.770;2024-02-23T11:57:19;12.70;73.20
14850;DHT22;7517;48.400;11.770;2024-02-23T12:00:08;12.70;73.20
14850;DHT22;7517;48.400;11.770;2024-02-23T12:02:54;12.70;73.30
14850;DHT22;7517;48.400;11.770;2024-02-23T12:05:41;12.70;73.70
14850;DHT22;7517;48.400;11.770;2024-02-23T12:08:30;12.70;74.00
14850;DHT22;7517;48.400;11.770;2024-02-23T12:11:22;12.70;73.90
14850;DHT22;7517;48.400;11.770;2024-02-23T12:14:09;12.80;74.50
14850;DHT22;7517;48.400;11.770;2024-02-23T12:16:59;12.80;74.50
14850;DHT22;7517;48.400;11.770;2024-02-23T12:19:47;12.80;74.50
14850;DHT22;7517;48.400;11.770;2024-02-23T12:22:40;12.80;74.70
14850;DHT22;7517;48.400;11.770;2024-02-23T12:25:27;12.80;74.20
14850;DHT22;7517;48.400;11.770;2024-02-23T12:28:19;12.80;74.60
14850;DHT22;7517;48.400;11.770;2024-02-23T12:31:05;12.80;73.90
14850;DHT22;7517;48.400;11.770;2024-02-23T12:33:53;12.80;74.50
14850;DHT22;7517;48.400;11.770;2024-02-23T12:36:43;12.80;74.20
14850;DHT22;7517;48.400;11.770;2024-02-23T12:39:31;12.80;74.00
14850;DHT22;7517;48.400;11.770;2024-02-23T12:42:18;12.70;73.80
14850;DHT22;7517;48.400;11.770;2024-02-23T12:45:05;12.70;73.60
14850;DHT22;7517;48.400;11.770;2024-02-23T12:47:51;12.70;73.80
14850;DHT22;7517;48.400;11.770;2024-02-23T12:50:39;12.70;74.10
14850;DHT22;7517;48.400;11.770;2024-02-23T12:53:34;12.70;73.70
14850;DHT22;7517;48.400;11.770;2024-02-23T12:56:25;12.70;72.80
14850;DHT22;7517;48.400;11.770;2024-02-23T12:59:12;12.70;73.90
14850;DHT22;7517;48.400;11.770;2024-02-23T13:01:57;12.70;73.60
14850;DHT22;7517;48.400;11.770;2024-02-23T13:04:43;12.70;73.50
14850;DHT22;7517;48.400;11.770;2024-02-23T13:07:34;12.70;73.30
14850;DHT22;7517;48.400;11.770;2024-02-23T13:10:22;12.60;73.40
14850;DHT22;7517;48.400;11.770;2024-02-23T13:13:09;12.60;73.80
14850;DHT22;7517;48.400;11.770;2024-02-23T13:15:55;12.60;73.80
14850;DHT22;7517;48.400;11.770;2024-02-23T13:18:42;12.60;73.50
14850;DHT22;7517;48.400;11.770;2024-02-23T13:21:31;12.60;73.80
14850;DHT22;7517;48.400;11.770;2024-02-23T13:24:20;12.60;73.70
14850;DHT22;7517;48.400;11.770;2024-02-23T13:27:06;12.60;73.70
14850;DHT22;7517;48.400;11.770;2024-02-23T13:29:52;12.60;73.70
14850;DHT22;7517;48.400;11.770;2024-02-23T13:32:39;12.60;73.50
14850;DHT22;7517;48.400;11.770;2024-02-23T13:35:25;12.60;73.00
14850;DHT22;7517;48.400;11.770;2024-02-23T13:38:11;12.60;72.80
14850;DHT22;7517;48.400;11.770;2024-02-23T13:40:58;12.60;72.80
14850;DHT22;7517;48.400;11.770;2024-02-23T13:43:45;12.60;72.40
14850;DHT22;7517;48.400;11.770;2024-02-23T13:46:31;12.60;72.60
14850;DHT22;7517;48.400;11.770;2024-02-23T13:49:18;12.60;72.30
14850;DHT22;7517;48.400;11.770;2024-02-23T13:52:05;12.50;72.30
14850;DHT22;7517;48.400;11.770;2024-02-23T13:54:52;12.50;72.60
14850;DHT22;7517;48.400;11.770;2024-02-23T13:57:40;12.50;72.60
14850;DHT22;7517;48.400;11.770;2024-02-23T14:00:26;12.40;72.30
14850;DHT22;7517;48.400;11.770;2024-02-23T14:03:16;12.40;72.20
14850;DHT22;7517;48.400;11.770;2024-02-23T14:06:03;12.40;71.50
14850;DHT22;7517;48.400;11.770;2024-02-23T14:08:49;12.40;72.00
14850;DHT22;7517;48.400;11.770;2024-02-23T14:11:37;12.30;71.90
14850;DHT22;7517;48.400;11.770;2024-02-23T14:14:27;12.30;72.40
14850;DHT22;7517;48.400;11.770;2024-02-23T14:17:13;12.30;72.20
14850;DHT22;7517;48.400;11.770;2024-02-23T14:20:00;12.30;72.30
14850;DHT22;7517;48.400;11.770;2024-02-23T14:22:47;12.20;72.10
14850;DHT22;7517;48.400;11.770;2024-02-23T14:25:37;12.20;72.00
14850;DHT22;7517;48.400;11.770;2024-02-23T14:28:23;12.20;72.00
14850;DHT22;7517;48.400;11.770;2024-02-23T14:31:13;12.20;71.70
14850;DHT22;7517;48.400;11.770;2024-02-23T14:33:59;12.20;71.20
14850;DHT22;7517;48.400;11.770;2024-02-23T14:36:46;12.10;71.80
14850;DHT22;7517;48.400;11.770;2024-02-23T14:39:35;12.10;71.90
14850;DHT22;7517;48.400;11.770;2024-02-23T14:42:24;12.10;71.80
14850;DHT22;7517;48.400;11.770;2024-02-23T14:45:11;12.10;71.80
14850;DHT22;7517;48.400;11.770;2024-02-23T14:47:59;12.00;71.70
14850;DHT22;7517;48.400;11.770;2024-02-23T14:50:46;12.00;71.80
14850;DHT22;7517;48.400;11.770;2024-02-23T14:53:33;11.90;72.00
14850;DHT22;7517;48.400;11.770;2024-02-23T14:56:19;11.90;71.90
14850;DHT22;7517;48.400;11.770;2024-02-23T14:59:06;11.80;71.90
14850;DHT22;7517;48.400;11.770;2024-02-23T15:01:54;11.80;72.30
14850;DHT22;7517;48.400;11.770;2024-02-23T15:04:44;11.70;72.60
14850;DHT22;7517;48.400;11.770;2024-02-23T15:07:29;11.70;71.40
14850;DHT22;7517;48.400;11.770;2024-02-23T15:10:15;11.60;71.70
14850;DHT22;7517;48.400;11.770;2024-02-23T15:13:03;11.60;71.90
14850;DHT22;7517;48.400;11.770;2024-02-23T15:15:49;11.50;71.90
14850;DHT22;7517;48.400;11.770;2024-02-23T15:18:40;11.50;72.00
14850;DHT22;7517;48.400;11.770;2024-02-23T15:21:28;11.50;71.80
14850;DHT22;7517;48.400;11.770;2024-02-23T15:24:14;11.40;71.40
14850;DHT22;7517;48.400;11.770;2024-02-23T15:27:02;11.40;72.00
14850;DHT22;7517;48.400;11.770;2024-02-23T15:29:48;11.40;72.10
14850;DHT22;7517;48.400;11.770;2024-02-23T15:32:34;11.30;72.30
14850;DHT22;7517;48.400;11.770;2024-02-23T15:35:21;11.30;72.20
14850;DHT22;7517;48.400;11.770;2024-02-23T15:38:11;11.20;72.00
14850;DHT22;7517;48.400;11.770;2024-02-23T15:40:58;11.20;72.00
14850;DHT22;7517;48.400;11.770;2024-02-23T15:43:44;11.20;72.20
14850;DHT22;7517;48.400;11.770;2024-02-23T15:46:31;11.10;72.30
14850;DHT22;7517;48.400;11.770;2024-02-23T15:49:17;11.10;72.40
14850;DHT22;7517;48.400;11.770;2024-02-23T15:52:05;11.10;72.50
14850;DHT22;7517;48.400;11.770;2024-02-23T15:54:54;11.10;72.40
14850;DHT22;7517;48.400;11.770;2024-02-23T15:57:40;10.90;72.00
14850;DHT22;7517;48.400;11.770;2024-02-23T16:00:27;11.00;72.30
14850;DHT22;7517;48.400;11.770;2024-02-23T16:03:13;11.00;72.50
14850;DHT22;7517;48.400;11.770;2024-02-23T16:06:01;10.90;72.60
14850;DHT22;7517;48.400;11.770;2024-02-23T16:08:47;10.90;72.20
14850;DHT22;7517;48.400;11.770;2024-02-23T16:11:35;10.90;72.10
14850;DHT22;7517;48.400;11.770;2024-02-23T16:14:23;10.80;71.90
14850;DHT22;7517;48.400;11.770;2024-02-23T16:17:11;10.80;72.30
14850;DHT22;7517;48.400;11.770;2024-02-23T16:19:57;10.80;72.20
14850;DHT22;7517;48.400;11.770;2024-02-23T16:22:43;10.80;72.30
14850;DHT22;7517;48.400;11.770;2024-02-23T16:25:29;10.70;72.20
14850;DHT22;7517;48.400;11.770;2024-02-23T16:28:19;10.70;72.10
14850;DHT22;7517;48.400;11.770;2024-02-23T16:31:05;10.70;71.80
14850;DHT22;7517;48.400;11.770;2024-02-23T16:33:51;10.60;72.00
14850;DHT22;7517;48.400;11.770;2024-02-23T16:36:37;10.60;71.90
14850;DHT22;7517;48.400;11.770;2024-02-23T16:39:23;10.50;71.90
14850;DHT22;7517;48.400;11.770;2024-02-23T16:42:09;10.50;72.10
14850;DHT22;7517;48.400;11.770;2024-02-23T16:44:57;10.50;72.10
14850;DHT22;7517;48.400;11.770;2024-02-23T16:47:43;10.40;72.00
14850;DHT22;7517;48.400;11.770;2024-02-23T16:50:30;10.40;72.00
14850;DHT22;7517;48.400;11.770;2024-02-23T16:53:16;10.40;72.20
14850;DHT22;7517;48.400;11.770;2024-02-23T16:56:11;10.40;72.30
14850;DHT22;7517;48.400;11.770;2024-02-23T16:58:57;10.30;71.90
14850;DHT22;7517;48.400;11.770;2024-02-23T17:01:44;10.30;72.30
14850;DHT22;7517;48.400;11.770;2024-02-23T17:04:33;10.30;71.90
14850;DHT22;7517;48.400;11.770;2024-02-23T17:07:20;10.30;72.30
14850;DHT22;7517;48.400;11.770;2024-02-23T17:10:07;10.20;72.30
14850;DHT22;7517;48.400;11.770;2024-02-23T17:12:54;10.20;72.50
14850;DHT22;7517;48.400;11.770;2024-02-23T17:15:40;10.20;72.60
14850;DHT22;7517;48.400;11.770;2024-02-23T17:18:28;10.20;72.90
14850;DHT22;7517;48.400;11.770;2024-02-23T17:21:14;10.10;72.60
14850;DHT22;7517;48.400;11.770;2024-02-23T17:24:00;10.10;72.70
14850;DHT22;7517;48.400;11.770;2024-02-23T17:26:49;10.10;72.80
14850;DHT22;7517;48.400;11.770;2024-02-23T17:29:35;10.00;73.10
14850;DHT22;7517;48.400;11.770;2024-02-23T17:32:22;10.00;73.20
14850;DHT22;7517;48.400;11.770;2024-02-23T17:35:09;9.90;73.20
14850;DHT22;7517;48.400;11.770;2024-02-23T17:37:55;9.90;73.00